Time;durP1;ratioP1;P1;durP2;ratioP2;P2;SDS_P1;SDS_P2;PMS_P1;PMS_P2;Temp;Humidity;BMP_temperature;BMP_pressure;BME280_temperature;BME280_humidity;BME280_pressure;Samples;Min_cycle;Max_cycle;Signal;HPM_P1;HPM_P2
2023/03/13 00:01:18;;;;;;;15.57;12.80;;;4.60;99.90;;;;;;5014509;28;20302;-75
2023/03/13 00:03:43;;;;;;;16.10;14.15;;;4.60;99.90;;;;;;5012781;28;20189;-76
2023/03/13 00:06:09;;;;;;;15.07;13.57;;;4.70;99.90;;;;;;5015392;28;20434;-76
2023/03/13 00:08:35;;;;;;;15.65;13.95;;;4.70;99.90;;;;;;5014020;28;20651;-76
2023/03/13 00:11:05;;;;;;;16.38;14.85;;;4.60;99.90;;;;;;5017691;28;20225;-75
2023/03/13 00:13:31;;;;;;;15.75;14.15;;;4.60;99.90;;;;;;5012471;28;20231;-75
2023/03/13 00:16:05;;;;;;;14.90;13.40;;;4.60;99.90;;;;;;5013119;28;20188;-76
2023/03/13 00:18:31;;;;;;;16.67;13.93;;;4.60;99.90;;;;;;5013360;28;20207;-75
2023/03/13 00:21:01;;;;;;;16.30;14.60;;;4.60;99.90;;;;;;5013971;28;20197;-75
2023/03/13 00:23:27;;;;;;;15.10;13.48;;;4.50;99.90;;;;;;5013531;28;20275;-75
2023/03/13 00:26:02;;;;;;;15.27;13.77;;;4.40;99.90;;;;;;5013814;28;20199;-76
2023/03/13 00:28:29;;;;;;;14.50;13.07;;;4.50;99.90;;;;;;5014433;28;20172;-75
2023/03/13 00:31:14;;;;;;;15.77;14.20;;;4.50;99.90;;;;;;5013764;28;20219;-75
2023/03/13 00:33:42;;;;;;;14.70;13.27;;;4.60;99.90;;;;;;5011806;28;20180;-75
2023/03/13 00:36:14;;;;;;;15.95;13.68;;;4.60;99.90;;;;;;5013812;28;20540;-77
2023/03/13 00:38:40;;;;;;;14.80;13.40;;;4.60;99.90;;;;;;5013094;28;20540;-77
2023/03/13 00:41:14;;;;;;;15.07;13.57;;;4.50;99.90;;;;;;5018193;28;20710;-75
2023/03/13 00:43:41;;;;;;;16.02;14.43;;;4.50;99.90;;;;;;5014163;28;22818;-76
2023/03/13 00:46:07;;;;;;;15.50;13.48;;;4.50;99.90;;;;;;5013549;28;20200;-76
2023/03/13 00:48:33;;;;;;;15.00;13.50;;;4.40;99.90;;;;;;5013361;28;20178;-74
2023/03/13 00:51:00;;;;;;;15.23;13.60;;;4.50;99.90;;;;;;5015482;28;20192;-76
2023/03/13 00:53:25;;;;;;;13.15;11.57;;;4.40;99.90;;;;;;5012352;28;20241;-76
2023/03/13 00:55:52;;;;;;;15.07;13.57;;;4.40;99.90;;;;;;5011329;28;20189;-75
2023/03/13 00:58:18;;;;;;;13.57;12.15;;;4.40;99.90;;;;;;5012348;28;20220;-75
2023/03/13 01:00:44;;;;;;;15.98;13.15;;;4.30;99.90;;;;;;5011649;28;20627;-74
2023/03/13 01:03:09;;;;;;;15.95;14.30;;;4.30;99.90;;;;;;5012929;28;20271;-77
2023/03/13 01:05:35;;;;;;;16.80;14.63;;;4.20;99.90;;;;;;5013661;28;20291;-77
2023/03/13 01:08:00;;;;;;;16.75;15.02;;;4.20;99.90;;;;;;5012053;28;20263;-77
2023/03/13 01:10:26;;;;;;;16.98;15.05;;;4.20;99.90;;;;;;5012612;28;20759;-76
2023/03/13 01:12:51;;;;;;;16.17;14.57;;;4.30;99.90;;;;;;5026966;28;20176;-75
2023/03/13 01:15:18;;;;;;;15.85;14.15;;;4.20;99.90;;;;;;5011829;28;20184;-76
2023/03/13 01:17:44;;;;;;;14.98;13.10;;;4.20;99.90;;;;;;5015879;28;20180;-75
2023/03/13 01:20:10;;;;;;;15.32;12.68;;;4.30;99.90;;;;;;5013004;28;20216;-74
2023/03/13 01:22:37;;;;;;;14.63;13.13;;;4.30;99.90;;;;;;5014014;28;20177;-76
2023/03/13 01:25:03;;;;;;;15.32;13.73;;;4.40;99.90;;;;;;5012035;28;20664;-76
2023/03/13 01:27:29;;;;;;;15.50;13.10;;;4.30;99.90;;;;;;5011336;28;20668;-76
2023/03/13 01:29:54;;;;;;;14.10;12.55;;;4.30;99.90;;;;;;5008490;28;20228;-74
2023/03/13 01:32:20;;;;;;;13.27;12.05;;;4.40;99.90;;;;;;5016372;28;20264;-75
2023/03/13 01:34:46;;;;;;;12.77;11.40;;;4.40;99.90;;;;;;5013458;28;20193;-74
2023/03/13 01:37:11;;;;;;;16.25;13.70;;;4.40;99.90;;;;;;5015631;28;20644;-74
2023/03/13 01:39:37;;;;;;;12.40;11.18;;;4.50;99.90;;;;;;5012851;28;20243;-74
2023/03/13 01:42:04;;;;;;;15.30;13.27;;;4.50;99.90;;;;;;5013466;28;20200;-76
2023/03/13 01:44:47;;;;;;;16.50;13.90;;;4.50;99.90;;;;;;5013621;28;20200;-76
2023/03/13 01:47:13;;;;;;;15.40;13.88;;;4.50;99.90;;;;;;5011298;28;20220;-75
2023/03/13 01:49:38;;;;;;;15.10;13.40;;;4.40;99.90;;;;;;5013481;28;20295;-76
2023/03/13 01:52:24;;;;;;;14.43;13.02;;;4.40;99.90;;;;;;5012180;28;20188;-76
2023/03/13 01:54:52;;;;;;;14.40;12.85;;;4.40;99.90;;;;;;5012226;28;20184;-74
2023/03/13 01:57:28;;;;;;;13.85;12.45;;;4.40;99.90;;;;;;5012765;28;20284;-76
2023/03/13 02:00:03;;;;;;;13.20;11.80;;;4.50;99.90;;;;;;5013481;28;20287;-74
2023/03/13 02:02:30;;;;;;;13.40;12.00;;;4.50;99.90;;;;;;5012079;28;20200;-77
2023/03/13 02:05:00;;;;;;;12.73;11.43;;;4.40;99.90;;;;;;5016309;28;20191;-76
2023/03/13 02:07:33;;;;;;;15.27;13.77;;;4.40;99.90;;;;;;5016648;28;20278;-76
2023/03/13 02:09:59;;;;;;;15.00;13.25;;;4.30;99.90;;;;;;5011566;28;20299;-76
2023/03/13 02:12:34;;;;;;;15.75;12.52;;;4.20;99.90;;;;;;5014173;28;20263;-76
2023/03/13 02:15:16;;;;;;;13.57;12.25;;;4.20;99.90;;;;;;5015611;28;20223;-76
2023/03/13 02:17:43;;;;;;;16.88;13.52;;;4.20;99.90;;;;;;5013283;28;20320;-76
2023/03/13 02:20:10;;;;;;;14.40;12.85;;;4.10;99.90;;;;;;5017556;28;20579;-76
2023/03/13 02:22:57;;;;;;;15.30;13.43;;;4.10;99.90;;;;;;5019086;28;20188;-77
2023/03/13 02:25:22;;;;;;;14.10;12.73;;;4.10;99.90;;;;;;5017071;28;20180;-75
2023/03/13 02:27:51;;;;;;;15.00;13.38;;;4.10;99.90;;;;;;5017201;28;20177;-76
2023/03/13 02:30:17;;;;;;;14.32;12.93;;;4.00;99.90;;;;;;5017410;28;20231;-74
2023/03/13 02:32:44;;;;;;;16.45;14.65;;;4.00;99.90;;;;;;5014013;28;20177;-76
2023/03/13 02:35:13;;;;;;;15.30;13.73;;;4.00;99.90;;;;;;5014451;28;20189;-77
2023/03/13 02:37:42;;;;;;;15.57;14.00;;;3.90;99.90;;;;;;5015857;28;20251;-74
2023/03/13 02:40:11;;;;;;;15.38;13.80;;;3.90;99.90;;;;;;5014903;28;20209;-76
2023/03/13 02:42:42;;;;;;;14.90;13.40;;;3.90;99.90;;;;;;5015080;28;20185;-75
2023/03/13 02:45:09;;;;;;;14.43;12.93;;;3.90;99.90;;;;;;5015568;28;20612;-76
2023/03/13 02:47:34;;;;;;;15.23;13.73;;;3.90;99.90;;;;;;5015842;28;20185;-76
2023/03/13 02:50:00;;;;;;;15.48;13.90;;;3.90;99.90;;;;;;5014367;28;20302;-76
2023/03/13 02:52:48;;;;;;;18.48;14.18;;;3.80;99.90;;;;;;5015869;28;20334;-76
2023/03/13 02:55:25;;;;;;;20.20;15.60;;;3.80;99.90;;;;;;5012564;28;20189;-75
2023/03/13 02:57:50;;;;;;;16.13;14.50;;;3.80;99.90;;;;;;5013530;28;20231;-75
2023/03/13 03:00:17;;;;;;;17.55;15.43;;;3.90;99.90;;;;;;5013282;28;20759;-75
2023/03/13 03:02:44;;;;;;;17.48;15.32;;;3.80;99.90;;;;;;5015450;28;20220;-73
2023/03/13 03:05:12;;;;;;;19.10;16.45;;;3.80;99.90;;;;;;5015172;28;20191;-76
2023/03/13 03:07:38;;;;;;;17.80;15.32;;;3.80;99.90;;;;;;5016575;28;22432;-74
2023/03/13 03:10:04;;;;;;;16.30;14.35;;;3.90;99.90;;;;;;5015739;28;20299;-75
2023/03/13 03:12:30;;;;;;;16.13;14.32;;;4.00;99.90;;;;;;5016469;28;20191;-75
2023/03/13 03:14:56;;;;;;;17.10;15.18;;;4.00;99.90;;;;;;5016047;28;20178;-75
2023/03/13 03:17:21;;;;;;;17.95;15.43;;;4.00;99.90;;;;;;5015594;28;20180;-76
2023/03/13 03:19:47;;;;;;;16.10;14.40;;;4.10;99.90;;;;;;5014687;28;20220;-74
2023/03/13 03:22:12;;;;;;;16.10;14.40;;;4.10;99.90;;;;;;5018345;28;20282;-76
2023/03/13 03:24:38;;;;;;;18.88;15.32;;;4.10;99.90;;;;;;5013172;28;20183;-75
2023/03/13 03:27:04;;;;;;;17.48;14.93;;;4.10;99.90;;;;;;5014604;28;20644;-77
2023/03/13 03:29:29;;;;;;;18.45;15.85;;;4.10;99.90;;;;;;5011849;28;20624;-77
2023/03/13 03:31:55;;;;;;;17.13;14.85;;;4.10;99.90;;;;;;5014836;28;20177;-76
2023/03/13 03:34:21;;;;;;;17.65;14.75;;;4.20;99.90;;;;;;5014406;28;20212;-75
2023/03/13 03:36:46;;;;;;;16.60;14.73;;;4.20;99.90;;;;;;5013067;28;20181;-74
2023/03/13 03:39:12;;;;;;;15.63;13.93;;;4.20;99.90;;;;;;5012866;28;20572;-76
2023/03/13 03:41:37;;;;;;;15.10;13.50;;;4.20;99.90;;;;;;5013782;28;20271;-77
2023/03/13 03:44:04;;;;;;;15.30;13.70;;;4.20;99.90;;;;;;5011742;28;20189;-76
2023/03/13 03:46:30;;;;;;;17.48;15.20;;;4.30;99.90;;;;;;5010997;28;20657;-76
2023/03/13 03:48:55;;;;;;;19.08;14.38;;;4.20;99.90;;;;;;5012789;28;20226;-76
2023/03/13 03:51:21;;;;;;;16.67;14.88;;;4.30;99.90;;;;;;5014370;28;20681;-76
2023/03/13 03:53:47;;;;;;;17.60;15.70;;;4.40;99.90;;;;;;5011846;28;20199;-75
2023/03/13 03:56:13;;;;;;;17.88;15.10;;;4.30;99.90;;;;;;5013538;28;20188;-74
2023/03/13 03:58:38;;;;;;;17.27;15.43;;;4.30;99.90;;;;;;5014750;28;20212;-76
2023/03/13 04:01:04;;;;;;;16.60;14.88;;;4.40;99.90;;;;;;5012702;28;20303;-76
2023/03/13 04:03:30;;;;;;;17.38;13.98;;;4.40;99.90;;;;;;5016000;28;20242;-77
2023/03/13 04:05:56;;;;;;;14.85;13.10;;;4.40;99.90;;;;;;5015237;28;20256;-76
2023/03/13 04:08:22;;;;;;;17.77;14.25;;;4.40;99.90;;;;;;5013746;28;20191;-76
2023/03/13 04:10:47;;;;;;;15.60;12.70;;;4.40;99.90;;;;;;5012902;28;20213;-77
2023/03/13 04:13:13;;;;;;;18.08;14.32;;;4.50;99.90;;;;;;5013782;28;20242;-76
2023/03/13 04:15:39;;;;;;;16.25;14.50;;;4.50;99.90;;;;;;5012436;28;20256;-75
2023/03/13 04:18:05;;;;;;;16.77;13.18;;;4.50;99.90;;;;;;5010490;28;20264;-77
2023/03/13 04:20:31;;;;;;;16.13;13.57;;;4.50;99.90;;;;;;5012496;28;20223;-74
2023/03/13 04:22:57;;;;;;;14.10;12.50;;;4.50;99.90;;;;;;5027344;28;20187;-75
2023/03/13 04:25:22;;;;;;;15.73;13.13;;;4.50;99.90;;;;;;5012588;28;20181;-75
2023/03/13 04:27:48;;;;;;;15.02;13.43;;;4.60;99.90;;;;;;5012650;28;20189;-76
2023/03/13 04:30:14;;;;;;;15.70;12.65;;;4.60;99.90;;;;;;5015563;28;20216;-76
2023/03/13 04:32:39;;;;;;;14.75;13.13;;;4.50;99.90;;;;;;5011719;28;20193;-75
2023/03/13 04:35:05;;;;;;;14.20;12.70;;;4.40;99.90;;;;;;5013859;28;20184;-74
2023/03/13 04:37:31;;;;;;;13.73;12.32;;;4.50;99.90;;;;;;5018137;28;20184;-73
2023/03/13 04:39:57;;;;;;;13.52;12.15;;;4.30;99.90;;;;;;5016001;28;22815;-75
2023/03/13 04:42:22;;;;;;;13.00;11.45;;;4.30;99.90;;;;;;5007383;28;20246;-73
2023/03/13 04:44:48;;;;;;;13.20;11.90;;;4.30;99.90;;;;;;5015822;28;20189;-74
2023/03/13 04:47:13;;;;;;;13.30;11.93;;;4.30;99.90;;;;;;5012821;28;20176;-75
2023/03/13 04:49:39;;;;;;;13.27;11.95;;;4.30;99.90;;;;;;5014244;28;20266;-73
2023/03/13 04:52:05;;;;;;;13.55;11.90;;;4.30;99.90;;;;;;5012068;28;20184;-72
2023/03/13 04:54:30;;;;;;;14.20;11.90;;;4.30;99.90;;;;;;5015349;28;20188;-74
2023/03/13 04:56:56;;;;;;;13.45;11.45;;;4.20;99.90;;;;;;5014563;28;20196;-74
2023/03/13 04:59:22;;;;;;;12.05;10.95;;;4.20;99.90;;;;;;5012438;28;20204;-74
2023/03/13 05:01:48;;;;;;;12.48;11.18;;;4.20;99.90;;;;;;5012317;28;20243;-73
2023/03/13 05:04:13;;;;;;;18.30;11.70;;;4.20;99.90;;;;;;5013474;28;20320;-73
2023/03/13 05:06:39;;;;;;;13.43;11.27;;;4.20;99.90;;;;;;5013543;28;20258;-74
2023/03/13 05:09:05;;;;;;;12.80;11.48;;;4.20;99.90;;;;;;5012382;28;20207;-74
2023/03/13 05:11:31;;;;;;;13.57;12.18;;;4.20;99.90;;;;;;5012844;28;20188;-74
2023/03/13 05:13:56;;;;;;;14.20;12.68;;;4.10;99.90;;;;;;5008822;28;20673;-73
2023/03/13 05:16:22;;;;;;;11.70;10.65;;;4.20;99.90;;;;;;5011790;28;20280;-73
2023/03/13 05:18:48;;;;;;;12.55;11.20;;;4.20;99.90;;;;;;5009938;28;20189;-73
2023/03/13 05:21:13;;;;;;;13.10;11.40;;;4.30;99.90;;;;;;5011681;28;20204;-74
2023/03/13 05:23:39;;;;;;;14.30;12.73;;;4.30;99.90;;;;;;5012499;28;20196;-72
2023/03/13 05:26:04;;;;;;;13.35;11.93;;;4.30;99.90;;;;;;5013798;28;20232;-73
2023/03/13 05:28:30;;;;;;;13.52;11.65;;;4.30;99.90;;;;;;5010501;28;20236;-73
2023/03/13 05:30:56;;;;;;;12.95;11.60;;;4.40;99.90;;;;;;5013646;28;20210;-74
2023/03/13 05:33:21;;;;;;;13.00;11.15;;;4.50;99.90;;;;;;5010985;28;20185;-74
2023/03/13 05:35:47;;;;;;;15.68;12.25;;;4.50;99.90;;;;;;5012498;28;20719;-73
2023/03/13 05:38:13;;;;;;;13.77;12.38;;;4.50;99.90;;;;;;5016755;28;20173;-74
2023/03/13 05:40:39;;;;;;;13.82;11.98;;;4.50;99.90;;;;;;5013131;28;20889;-74
2023/03/13 05:43:05;;;;;;;13.00;11.68;;;4.50;99.90;;;;;;5012056;28;20190;-72
2023/03/13 05:45:31;;;;;;;12.57;11.27;;;4.50;99.90;;;;;;5010206;28;20247;-73
2023/03/13 05:47:57;;;;;;;12.85;11.23;;;4.60;99.90;;;;;;5013859;28;20192;-72
2023/03/13 05:50:24;;;;;;;12.15;10.70;;;4.70;99.90;;;;;;5013229;28;20240;-72
2023/03/13 05:52:50;;;;;;;12.43;10.38;;;4.70;99.90;;;;;;5018822;28;20234;-73
2023/03/13 05:55:16;;;;;;;12.30;10.73;;;4.70;99.90;;;;;;5015440;28;20181;-73
2023/03/13 05:57:46;;;;;;;11.57;9.90;;;4.80;99.90;;;;;;5015914;28;20330;-72
2023/03/13 06:00:13;;;;;;;14.23;11.32;;;4.80;99.90;;;;;;5016747;28;20208;-73
2023/03/13 06:02:39;;;;;;;11.55;10.18;;;4.80;99.90;;;;;;5017726;28;20188;-73
2023/03/13 06:05:05;;;;;;;13.40;11.38;;;5.00;99.90;;;;;;5015551;28;20526;-73
2023/03/13 06:07:31;;;;;;;11.70;10.48;;;5.00;99.90;;;;;;5014922;28;20527;-75
2023/03/13 06:09:56;;;;;;;11.20;9.63;;;5.00;99.90;;;;;;5020103;28;20252;-74
2023/03/13 06:12:22;;;;;;;11.45;10.35;;;5.10;99.90;;;;;;5017163;28;20189;-74
2023/03/13 06:14:48;;;;;;;10.55;9.10;;;5.10;99.90;;;;;;5015041;28;20664;-76
2023/03/13 06:17:13;;;;;;;10.88;9.77;;;5.20;99.90;;;;;;5017691;28;20181;-73
2023/03/13 06:19:39;;;;;;;10.40;9.35;;;5.30;99.90;;;;;;5014193;28;20223;-74
2023/03/13 06:22:05;;;;;;;11.55;10.23;;;5.30;99.90;;;;;;5017255;28;20664;-73
2023/03/13 06:24:30;;;;;;;10.25;9.27;;;5.30;99.90;;;;;;5014574;28;20185;-74
2023/03/13 06:26:56;;;;;;;10.82;9.68;;;5.40;99.90;;;;;;5014829;28;20202;-73
2023/03/13 06:29:23;;;;;;;12.57;10.30;;;5.50;99.90;;;;;;5014002;28;20243;-74
2023/03/13 06:31:49;;;;;;;10.23;8.77;;;5.40;99.90;;;;;;5017244;28;20743;-74
2023/03/13 06:34:15;;;;;;;10.68;8.77;;;5.50;99.90;;;;;;5011782;28;20176;-74
2023/03/13 06:36:41;;;;;;;9.65;8.65;;;5.60;99.90;;;;;;5015189;28;20177;-74
2023/03/13 06:39:07;;;;;;;9.30;8.38;;;5.80;99.90;;;;;;5014059;28;20582;-73
2023/03/13 06:41:32;;;;;;;8.60;7.80;;;5.90;99.90;;;;;;5012923;28;20696;-72
2023/03/13 06:43:58;;;;;;;8.80;7.90;;;5.90;99.90;;;;;;5014232;28;20185;-73
2023/03/13 06:46:24;;;;;;;9.40;8.50;;;6.00;99.90;;;;;;5014759;28;20197;-73
2023/03/13 06:48:50;;;;;;;9.27;8.15;;;5.90;99.90;;;;;;5014761;28;20235;-73
2023/03/13 06:51:19;;;;;;;7.78;7.03;;;5.80;99.90;;;;;;5011533;28;20204;-73
2023/03/13 06:53:45;;;;;;;8.27;7.57;;;5.80;99.90;;;;;;5014804;28;20187;-74
2023/03/13 06:56:11;;;;;;;9.13;7.78;;;5.80;99.90;;;;;;5014727;28;20554;-74
2023/03/13 06:58:36;;;;;;;9.95;7.15;;;5.70;99.90;;;;;;5010995;28;20180;-73
2023/03/13 07:01:07;;;;;;;8.25;7.47;;;5.80;99.90;;;;;;5016416;28;20302;-74
2023/03/13 07:03:33;;;;;;;7.22;6.57;;;5.90;99.90;;;;;;5014844;28;20603;-73
2023/03/13 07:05:59;;;;;;;7.25;6.38;;;6.00;99.90;;;;;;5014732;28;20188;-73
2023/03/13 07:08:26;;;;;;;7.72;7.07;;;6.00;99.90;;;;;;5017973;28;20198;-75
2023/03/13 07:10:52;;;;;;;7.55;6.90;;;6.10;99.90;;;;;;5026118;28;20211;-76
2023/03/13 07:13:20;;;;;;;8.13;6.93;;;6.20;99.90;;;;;;5028829;28;20192;-76
2023/03/13 07:15:47;;;;;;;6.95;6.25;;;6.20;99.90;;;;;;5030884;28;20181;-75
2023/03/13 07:18:13;;;;;;;7.25;6.25;;;6.40;99.90;;;;;;5035720;28;20176;-75
2023/03/13 07:20:38;;;;;;;7.65;5.45;;;6.50;99.90;;;;;;5028474;28;20710;-76
2023/03/13 07:23:04;;;;;;;7.28;5.85;;;6.40;99.90;;;;;;5036796;28;20675;-77
2023/03/13 07:25:29;;;;;;;6.50;6.00;;;6.40;99.90;;;;;;5033867;28;20188;-76
2023/03/13 07:27:55;;;;;;;6.75;5.20;;;6.50;99.90;;;;;;5031931;28;20191;-77
2023/03/13 07:30:21;;;;;;;6.25;5.65;;;6.60;99.90;;;;;;5026124;28;20252;-76
2023/03/13 07:32:47;;;;;;;6.05;5.45;;;6.60;99.90;;;;;;5033805;28;20202;-76
2023/03/13 07:35:12;;;;;;;7.30;5.68;;;6.60;99.90;;;;;;5027974;28;20176;-76
2023/03/13 07:37:38;;;;;;;6.38;5.70;;;6.60;99.90;;;;;;5028233;28;20180;-77
2023/03/13 07:40:04;;;;;;;5.97;5.40;;;6.70;99.90;;;;;;5022917;28;20738;-77
2023/03/13 07:42:30;;;;;;;6.18;5.65;;;6.60;99.90;;;;;;5029591;28;20185;-77
2023/03/13 07:44:55;;;;;;;6.28;5.68;;;6.60;99.90;;;;;;5024161;28;20535;-76
2023/03/13 07:47:21;;;;;;;5.85;5.32;;;6.60;99.90;;;;;;5030447;28;20195;-77
2023/03/13 07:49:46;;;;;;;7.15;5.45;;;6.60;99.90;;;;;;5029892;28;20270;-75
2023/03/13 07:52:12;;;;;;;5.95;5.47;;;6.70;99.90;;;;;;5027504;28;20559;-77
2023/03/13 07:54:37;;;;;;;5.85;5.38;;;6.80;99.90;;;;;;5027077;28;20181;-76
2023/03/13 07:57:03;;;;;;;6.35;5.40;;;6.80;99.90;;;;;;5033440;28;20177;-78
2023/03/13 07:59:29;;;;;;;6.00;5.43;;;7.00;99.90;;;;;;5029249;28;20204;-75
2023/03/13 08:01:55;;;;;;;6.13;5.53;;;7.10;99.90;;;;;;5030365;28;20192;-75
2023/03/13 08:04:20;;;;;;;6.25;5.60;;;7.10;99.90;;;;;;5029102;28;20284;-75
2023/03/13 08:06:46;;;;;;;5.53;5.03;;;7.20;99.90;;;;;;5025302;28;20188;-76
2023/03/13 08:09:12;;;;;;;4.93;4.53;;;7.30;99.90;;;;;;5028504;28;20266;-76
2023/03/13 08:11:43;;;;;;;5.25;4.65;;;7.30;99.90;;;;;;5030911;28;20177;-75
2023/03/13 08:14:09;;;;;;;5.05;4.60;;;7.60;99.90;;;;;;5032044;28;20648;-76
2023/03/13 08:16:34;;;;;;;5.35;4.95;;;7.80;99.90;;;;;;5026132;28;20226;-76
2023/03/13 08:19:04;;;;;;;5.13;4.63;;;7.90;99.90;;;;;;5038004;28;20648;-76
2023/03/13 08:21:33;;;;;;;5.20;4.70;;;7.90;99.90;;;;;;5032475;28;20651;-76
2023/03/13 08:24:01;;;;;;;4.68;4.30;;;7.90;99.90;;;;;;5032486;28;20192;-76
2023/03/13 08:26:28;;;;;;;5.13;4.72;;;8.00;99.90;;;;;;5022143;28;20177;-77
2023/03/13 08:28:56;;;;;;;5.70;5.20;;;8.20;99.90;;;;;;5024858;28;20560;-76
2023/03/13 08:31:34;;;;;;;4.70;4.30;;;8.30;99.90;;;;;;5025989;28;20593;-76
2023/03/13 08:33:59;;;;;;;5.10;4.70;;;8.40;99.90;;;;;;5024220;28;20668;-77
2023/03/13 08:36:26;;;;;;;6.70;4.45;;;8.30;99.90;;;;;;5028194;28;20200;-76
2023/03/13 08:38:54;;;;;;;5.07;4.68;;;8.20;99.90;;;;;;5029402;28;20176;-76
2023/03/13 08:41:26;;;;;;;5.28;4.80;;;8.20;99.90;;;;;;5031567;28;20204;-76
2023/03/13 08:43:52;;;;;;;4.93;4.47;;;8.40;99.90;;;;;;5028855;28;20240;-76
2023/03/13 08:46:18;;;;;;;4.22;3.90;;;8.80;99.90;;;;;;5031684;28;20319;-76
2023/03/13 08:48:47;;;;;;;4.90;4.20;;;9.30;99.90;;;;;;5020934;28;20173;-76
2023/03/13 08:51:14;;;;;;;5.35;4.38;;;10.00;99.90;;;;;;5026941;28;20201;-74
2023/03/13 08:53:41;;;;;;;4.68;4.38;;;10.40;99.90;;;;;;5023325;28;20190;-77
2023/03/13 08:56:12;;;;;;;4.20;3.90;;;10.80;99.90;;;;;;5029057;28;20177;-76
2023/03/13 08:58:38;;;;;;;4.65;4.25;;;11.10;99.90;;;;;;5030113;28;20199;-77
2023/03/13 09:01:09;;;;;;;5.07;4.18;;;11.30;99.90;;;;;;5026874;28;20205;-77
2023/03/13 09:03:36;;;;;;;3.95;3.65;;;12.00;99.90;;;;;;5031869;28;20726;-78
2023/03/13 09:06:02;;;;;;;3.95;3.65;;;13.00;99.90;;;;;;5024990;28;20212;-77
2023/03/13 09:08:28;;;;;;;3.88;3.55;;;13.30;99.90;;;;;;5024982;28;20550;-77
2023/03/13 09:11:06;;;;;;;4.55;4.00;;;13.20;99.90;;;;;;5029987;28;20213;-77
2023/03/13 09:13:34;;;;;;;3.70;3.40;;;13.40;99.90;;;;;;5027765;28;20192;-78
2023/03/13 09:16:15;;;;;;;3.88;3.58;;;13.50;99.90;;;;;;5031926;28;20636;-77
2023/03/13 09:18:44;;;;;;;3.83;3.63;;;13.10;99.90;;;;;;5032470;28;20357;-77
2023/03/13 09:21:14;;;;;;;4.00;3.60;;;13.20;99.90;;;;;;5035595;28;20711;-78
2023/03/13 09:23:39;;;;;;;4.25;3.90;;;13.70;99.90;;;;;;5037554;28;20187;-76
2023/03/13 09:26:05;;;;;;;3.67;3.38;;;13.40;99.90;;;;;;5030416;28;20200;-77
2023/03/13 09:28:32;;;;;;;4.18;3.88;;;13.40;99.90;;;;;;5029797;28;20675;-76
2023/03/13 09:31:07;;;;;;;3.55;3.35;;;13.40;99.90;;;;;;5036898;28;20215;-75
2023/03/13 09:33:32;;;;;;;4.05;3.72;;;13.20;99.90;;;;;;5034019;28;20229;-76
2023/03/13 09:35:58;;;;;;;6.60;3.78;;;12.80;99.90;;;;;;5031729;28;20184;-77
2023/03/13 09:38:24;;;;;;;4.40;4.00;;;12.30;99.90;;;;;;5029613;28;20185;-75
2023/03/13 09:40:52;;;;;;;4.70;3.92;;;11.60;99.90;;;;;;5025906;28;20206;-73
2023/03/13 09:43:44;;;;;;;4.53;4.10;;;11.20;99.90;;;;;;5022862;28;20195;-74
2023/03/13 09:46:22;;;;;;;5.13;4.20;;;10.70;99.90;;;;;;5024078;28;20264;-75
2023/03/13 09:48:53;;;;;;;4.00;3.70;;;10.60;99.90;;;;;;5024053;28;20191;-75
2023/03/13 09:51:29;;;;;;;4.38;3.60;;;10.60;99.90;;;;;;5024278;28;20671;-74
2023/03/13 09:54:24;;;;;;;5.28;3.67;;;10.60;99.90;;;;;;5030833;28;20546;-76
2023/03/13 09:57:04;;;;;;;4.70;4.30;;;10.70;99.90;;;;;;5042288;28;20177;-75
2023/03/13 09:59:45;;;;;;;4.25;3.85;;;10.70;99.90;;;;;;5030760;28;20204;-77
2023/03/13 10:02:32;;;;;;;4.20;3.88;;;10.80;99.90;;;;;;5037853;28;20192;-75
2023/03/13 10:05:15;;;;;;;4.38;3.97;;;10.80;99.90;;;;;;5029649;28;20194;-75
2023/03/13 10:07:41;;;;;;;4.15;3.80;;;10.70;99.90;;;;;;5020164;28;20193;-76
2023/03/13 10:10:16;;;;;;;4.03;3.72;;;10.60;99.90;;;;;;5023341;28;20581;-76
2023/03/13 10:12:48;;;;;;;4.30;3.90;;;10.60;99.90;;;;;;5032283;28;20180;-76
2023/03/13 10:15:38;;;;;;;5.72;3.80;;;10.60;99.90;;;;;;5031284;28;20358;-75
2023/03/13 10:18:22;;;;;;;3.85;3.55;;;10.60;99.90;;;;;;5033544;28;20212;-76
2023/03/13 10:21:00;;;;;;;3.70;3.40;;;10.80;99.90;;;;;;5030309;28;20240;-76
2023/03/13 10:23:45;;;;;;;3.63;3.42;;;11.00;99.90;;;;;;5029968;28;20604;-76
2023/03/13 10:26:21;;;;;;;3.58;3.38;;;11.30;99.90;;;;;;5023153;28;20280;-76
2023/03/13 10:28:49;;;;;;;3.72;3.30;;;11.60;99.90;;;;;;5025127;28;20228;-77
2023/03/13 10:31:29;;;;;;;3.80;3.50;;;11.90;99.90;;;;;;5038565;28;20212;-74
2023/03/13 10:34:06;;;;;;;3.60;3.38;;;12.30;99.90;;;;;;5026836;28;20228;-77
2023/03/13 10:36:40;;;;;;;3.42;3.22;;;12.90;99.90;;;;;;5038508;28;20220;-76
2023/03/13 10:39:13;;;;;;;3.60;3.30;;;13.80;99.90;;;;;;5031074;28;20208;-76
2023/03/13 10:41:39;;;;;;;3.90;3.60;;;14.40;99.90;;;;;;5028668;28;20175;-76
2023/03/13 10:44:13;;;;;;;3.50;3.20;;;15.20;99.90;;;;;;5034517;28;20262;-74
2023/03/13 10:46:41;;;;;;;4.22;3.10;;;16.60;99.90;;;;;;5031797;28;20179;-74
2023/03/13 10:49:18;;;;;;;3.90;3.47;;;17.70;99.90;;;;;;5032107;28;20711;-75
2023/03/13 10:51:48;;;;;;;6.47;3.45;;;17.80;99.90;;;;;;5031841;28;20188;-76
2023/03/13 10:54:26;;;;;;;4.03;3.70;;;17.50;99.90;;;;;;5037083;28;20609;-77
2023/03/13 10:57:25;;;;;;;3.42;3.22;;;16.90;99.90;;;;;;5028281;28;20220;-72
2023/03/13 10:59:52;;;;;;;3.60;3.10;;;16.70;99.90;;;;;;5016684;28;20274;-71
2023/03/13 11:02:31;;;;;;;3.00;2.80;;;17.50;99.90;;;;;;5023783;28;20181;-74
2023/03/13 11:04:58;;;;;;;4.28;3.75;;;18.70;99.90;;;;;;5023996;28;20733;-74
2023/03/13 11:07:37;;;;;;;3.85;3.55;;;19.10;99.90;;;;;;5024843;28;20184;-75
2023/03/13 11:10:19;;;;;;;4.32;3.30;;;19.10;99.90;;;;;;5021127;28;20323;-74
2023/03/13 11:12:53;;;;;;;3.60;3.05;;;18.60;99.90;;;;;;5023642;28;20225;-74
2023/03/13 11:15:48;;;;;;;3.00;2.80;;;18.90;99.90;;;;;;5019525;28;20238;-74
2023/03/13 11:18:24;;;;;;;2.42;2.33;;;19.60;99.30;;;;;;5021795;28;20190;-75
2023/03/13 11:20:51;;;;;;;4.47;2.67;;;19.30;98.10;;;;;;5021622;28;20254;-75
2023/03/13 11:23:27;;;;;;;2.53;2.42;;;19.70;98.70;;;;;;5022267;28;20188;-75
2023/03/13 11:26:31;;;;;;;2.92;2.65;;;20.70;96.70;;;;;;5022561;28;20622;-75
2023/03/13 11:29:01;;;;;;;2.72;2.53;;;22.70;93.50;;;;;;5018328;28;20244;-75
2023/03/13 11:31:28;;;;;;;2.65;2.45;;;24.40;86.50;;;;;;5018463;28;20259;-76
2023/03/13 11:33:58;;;;;;;2.95;2.72;;;24.80;82.60;;;;;;5019175;28;20691;-73
2023/03/13 11:36:54;;;;;;;3.22;2.47;;;24.50;80.90;;;;;;5020326;28;20785;-74
2023/03/13 11:39:19;;;;;;;2.60;2.40;;;23.10;79.90;;;;;;5018975;28;20475;-73
2023/03/13 11:41:58;;;;;;;5.57;2.50;;;22.10;85.70;;;;;;5023485;28;20196;-75
2023/03/13 11:44:29;;;;;;;2.38;2.20;;;22.10;86.10;;;;;;5022246;28;20226;-75
2023/03/13 11:47:21;;;;;;;2.67;2.30;;;22.60;84.80;;;;;;5017725;28;20181;-76
2023/03/13 11:49:52;;;;;;;2.67;2.40;;;22.70;83.20;;;;;;5011184;28;20312;-77
2023/03/13 11:52:23;;;;;;;4.05;2.58;;;22.70;83.50;;;;;;5023520;28;20567;-76
2023/03/13 11:55:01;;;;;;;2.80;2.60;;;22.30;84.80;;;;;;5017719;28;20208;-75
2023/03/13 11:57:31;;;;;;;3.20;2.90;;;22.00;84.90;;;;;;5018331;28;20685;-77
2023/03/13 12:00:30;;;;;;;2.90;2.70;;;21.40;86.50;;;;;;5021196;28;20209;-77
2023/03/13 12:02:57;;;;;;;2.90;2.70;;;20.50;87.70;;;;;;5019047;28;20180;-77
2023/03/13 12:05:27;;;;;;;3.30;2.80;;;19.20;90.70;;;;;;5022777;28;20197;-77
2023/03/13 12:08:02;;;;;;;3.22;3.03;;;18.20;92.80;;;;;;5019038;28;20309;-75
2023/03/13 12:10:38;;;;;;;2.83;2.63;;;17.60;94.10;;;;;;5019812;28;20290;-76
2023/03/13 12:13:26;;;;;;;3.38;3.08;;;17.20;95.50;;;;;;5020973;28;20180;-75
2023/03/13 12:15:56;;;;;;;4.53;2.97;;;16.70;97.30;;;;;;5020520;28;20567;-76
2023/03/13 12:18:30;;;;;;;3.70;2.88;;;16.30;98.50;;;;;;5022784;28;20264;-76
2023/03/13 12:21:05;;;;;;;3.75;2.75;;;16.20;99.30;;;;;;5021612;28;20200;-75
2023/03/13 12:24:06;;;;;;;3.40;2.85;;;16.30;99.90;;;;;;5022910;28;20190;-76
2023/03/13 12:27:11;;;;;;;4.45;3.30;;;16.30;99.90;;;;;;5019967;28;20179;-75
2023/03/13 12:29:44;;;;;;;4.95;3.05;;;16.60;99.90;;;;;;5013327;28;20224;-75
2023/03/13 12:32:27;;;;;;;3.35;2.90;;;17.20;99.90;;;;;;5020677;28;20644;-74
2023/03/13 12:35:04;;;;;;;3.40;2.60;;;18.20;99.80;;;;;;5020806;28;20185;-75
2023/03/13 12:37:38;;;;;;;3.22;2.35;;;19.60;97.30;;;;;;5021340;28;20245;-75
2023/03/13 12:40:22;;;;;;;2.78;2.58;;;21.50;94.20;;;;;;5019176;28;20203;-75
2023/03/13 12:43:08;;;;;;;2.63;2.42;;;23.50;89.80;;;;;;5022882;28;20242;-76
2023/03/13 12:45:44;;;;;;;4.05;2.65;;;23.90;84.40;;;;;;5020129;28;20180;-76
2023/03/13 12:48:41;;;;;;;2.38;2.17;;;23.70;83.90;;;;;;5025992;28;20185;-76
2023/03/13 12:51:26;;;;;;;2.42;2.28;;;23.50;84.00;;;;;;5026296;28;21950;-76
2023/03/13 12:54:07;;;;;;;2.55;2.35;;;24.00;83.50;;;;;;5029745;28;20615;-72
2023/03/13 12:56:32;;;;;;;3.40;3.08;;;24.40;81.70;;;;;;5022019;28;20322;-76